Cuttingsville, Vermont
Current Conditions -  °F | °C
As of 4:35 AM on Monday 24 Nov 2014 (Local Time) from KRUT Reporting Station
Overcast Overcast  
Wind Chill: 38°   Ceiling: 4200
Heat Index: 45°   Visibility: 10mi
Dew Point: 41°   Wind: 15mph
Humidity: 87%   Direction: 150°SSE
Pressure: 29.81"   Gusts: 21mph
Location:  43.49°N, 72.88°W
Report Text: KRUT 240935Z 15013G18KT 110V180 10SM FEW026 BKN042 OVC070 07/05 A2981 RMK AO1
Loading
Personal Weather Stations






























Interactive Weather Map New forecast layout! Learn more

10-Day Weather Forecast

Advertisements
Track Severe Weather on mobile